Time;durP1;ratioP1;P1;durP2;ratioP2;P2;SDS_P1;SDS_P2;PMS_P1;PMS_P2;Temp;Humidity;BMP_temperature;BMP_pressure;BME280_temperature;BME280_humidity;BME280_pressure;Samples;Min_cycle;Max_cycle;Signal;HPM_P1;HPM_P2
2022/06/01 00:00:18;;;;;;;;;9.67;7.67;;;;;;;;5046289;28;45445;-65
2022/06/01 00:02:43;;;;;;;;;1.00;1.00;;;;;;;;5038214;28;45346;-64
2022/06/01 00:05:08;;;;;;;;;3.00;2.00;;;;;;;;5037030;28;45448;-64
2022/06/01 00:07:34;;;;;;;;;3.00;3.00;;;;;;;;5052809;28;45408;-65
2022/06/01 00:10:01;;;;;;;;;2.00;2.00;;;;;;;;5071262;28;45431;-65
2022/06/01 00:12:34;;;;;;;;;1.67;1.67;;;;;;;;5039218;28;45165;-65
2022/06/01 00:15:00;;;;;;;;;2.00;2.00;;;;;;;;5040396;28;45387;-64
2022/06/01 00:17:25;;;;;;;;;4.00;2.67;;;;;;;;5058094;28;45376;-65
2022/06/01 00:19:50;;;;;;;;;5.33;4.00;;;;;;;;5057817;28;46310;-65
2022/06/01 00:22:16;;;;;;;;;7.00;3.33;;;;;;;;5057870;28;45515;-64
2022/06/01 00:25:04;;;;;;;;;1.33;1.00;;;;;;;;5071851;28;45445;-65
2022/06/01 00:27:34;;;;;;;;;5.00;3.00;;;;;;;;5032845;28;45268;-64
2022/06/01 00:30:00;;;;;;;;;5.00;4.00;;;;;;;;5018886;28;45475;-65
2022/06/01 00:32:25;;;;;;;;;6.00;3.67;;;;;;;;5031003;28;45419;-65
2022/06/01 00:34:53;;;;;;;;;5.00;4.00;;;;;;;;5014565;28;45391;-65
2022/06/01 00:37:19;;;;;;;;;3.00;3.00;;;;;;;;5015565;28;45227;-65
2022/06/01 00:39:45;;;;;;;;;3.67;2.00;;;;;;;;5014840;28;47268;-65
2022/06/01 00:42:31;;;;;;;;;5.00;4.00;;;;;;;;5015570;28;45349;-64
2022/06/01 00:44:56;;;;;;;;;4.67;4.00;;;;;;;;5030794;28;45415;-64
2022/06/01 00:47:32;;;;;;;;;5.67;5.67;;;;;;;;5015104;28;45478;-65
2022/06/01 00:50:07;;;;;;;;;9.67;4.00;;;;;;;;5015228;28;46076;-64
2022/06/01 00:52:37;;;;;;;;;6.00;4.00;;;;;;;;5015722;28;45417;-65
2022/06/01 00:55:11;;;;;;;;;5.67;4.33;;;;;;;;5015086;28;45340;-66
2022/06/01 00:57:41;;;;;;;;;4.00;4.00;;;;;;;;5015698;28;45283;-64
2022/06/01 01:00:09;;;;;;;;;6.33;4.00;;;;;;;;5000416;28;46483;-64
2022/06/01 01:02:34;;;;;;;;;5.00;3.33;;;;;;;;4996582;28;45342;-65
2022/06/01 01:05:04;;;;;;;;;7.33;4.00;;;;;;;;5037862;28;45368;-64
2022/06/01 01:07:29;;;;;;;;;4.33;3.00;;;;;;;;5045592;28;45352;-64
2022/06/01 01:09:57;;;;;;;;;4.00;3.00;;;;;;;;5077716;28;46464;-65
2022/06/01 01:12:24;;;;;;;;;6.00;4.00;;;;;;;;5064155;28;45331;-64
2022/06/01 01:14:51;;;;;;;;;5.00;4.00;;;;;;;;5049334;28;45475;-65
2022/06/01 01:17:16;;;;;;;;;4.00;4.00;;;;;;;;5036856;28;45370;-66
2022/06/01 01:19:46;;;;;;;;;1.33;1.33;;;;;;;;5037171;28;46163;-65
2022/06/01 01:22:14;;;;;;;;;3.67;3.67;;;;;;;;5061468;28;45425;-64
2022/06/01 01:25:05;;;;;;;;;3.00;3.00;;;;;;;;5060274;28;45416;-64
2022/06/01 01:27:31;;;;;;;;;4.33;3.67;;;;;;;;5049823;28;45522;-65
2022/06/01 01:30:16;;;;;;;;;5.67;3.33;;;;;;;;5056780;28;46133;-66
2022/06/01 01:32:43;;;;;;;;;3.33;3.33;;;;;;;;5036281;28;45477;-65
2022/06/01 01:35:09;;;;;;;;;3.00;3.00;;;;;;;;5057616;28;45953;-66
2022/06/01 01:37:36;;;;;;;;;4.00;4.00;;;;;;;;5057158;28;45302;-66
2022/06/01 01:40:07;;;;;;;;;5.33;3.33;;;;;;;;5056976;28;45712;-65
2022/06/01 01:42:37;;;;;;;;;3.00;3.00;;;;;;;;5068506;28;45428;-65
2022/06/01 01:45:23;;;;;;;;;5.33;4.00;;;;;;;;5076530;28;45440;-65
2022/06/01 01:47:49;;;;;;;;;3.00;3.00;;;;;;;;5068016;28;46554;-65
2022/06/01 01:50:16;;;;;;;;;3.33;3.00;;;;;;;;5066875;28;45523;-65
2022/06/01 01:52:44;;;;;;;;;3.00;3.00;;;;;;;;5056991;28;45359;-65
2022/06/01 01:55:29;;;;;;;;;4.00;4.00;;;;;;;;5056974;28;45154;-65
2022/06/01 01:58:05;;;;;;;;;4.00;4.00;;;;;;;;5049451;28;45853;-65
2022/06/01 02:00:37;;;;;;;;;6.00;4.33;;;;;;;;5038899;28;46555;-66
2022/06/01 02:03:14;;;;;;;;;4.00;4.00;;;;;;;;5046436;28;45709;-66
2022/06/01 02:06:07;;;;;;;;;5.00;4.33;;;;;;;;5060431;28;45615;-66
2022/06/01 02:08:46;;;;;;;;;9.00;4.33;;;;;;;;5065554;28;45538;-66
2022/06/01 02:14:30;;;;;;;;;6.00;6.00;;;;;;;;5055709;28;46399;-66
2022/06/01 02:16:59;;;;;;;;;6.67;5.33;;;;;;;;5070239;28;45290;-65
2022/06/01 02:19:26;;;;;;;;;6.00;6.00;;;;;;;;5077114;28;45462;-66
2022/06/01 02:21:55;;;;;;;;;5.33;3.67;;;;;;;;5076529;28;46202;-66
2022/06/01 02:24:21;;;;;;;;;4.00;4.00;;;;;;;;5071033;28;45183;-65
2022/06/01 02:26:46;;;;;;;;;3.67;2.00;;;;;;;;5036216;28;45365;-66
2022/06/01 02:29:15;;;;;;;;;5.67;4.00;;;;;;;;5051426;28;45565;-66
2022/06/01 02:31:42;;;;;;;;;5.00;3.00;;;;;;;;5059356;28;45773;-66
2022/06/01 02:34:09;;;;;;;;;5.67;5.00;;;;;;;;5059810;28;45256;-66
2022/06/01 02:36:35;;;;;;;;;8.33;4.33;;;;;;;;5069632;28;45205;-66
2022/06/01 02:39:02;;;;;;;;;4.33;3.00;;;;;;;;5061476;28;45610;-65
2022/06/01 02:44:11;;;;;;;;;3.00;3.00;;;;;;;;5048610;28;45359;-64
2022/06/01 02:46:36;;;;;;;;;6.00;4.00;;;;;;;;5060036;28;45446;-64
2022/06/01 02:49:02;;;;;;;;;5.00;3.00;;;;;;;;5080028;28;45415;-65
2022/06/01 02:51:28;;;;;;;;;6.00;4.00;;;;;;;;5076708;28;46245;-65
2022/06/01 02:53:53;;;;;;;;;6.00;5.33;;;;;;;;5058705;28;45590;-64
2022/06/01 02:56:19;;;;;;;;;6.67;6.00;;;;;;;;5066099;28;45281;-64
2022/06/01 02:58:44;;;;;;;;;7.33;3.67;;;;;;;;5074026;28;45364;-66
2022/06/01 03:01:09;;;;;;;;;4.00;4.00;;;;;;;;5059226;28;46529;-65
2022/06/01 03:03:35;;;;;;;;;7.00;5.67;;;;;;;;5041048;28;45388;-64
2022/06/01 03:06:00;;;;;;;;;4.00;4.00;;;;;;;;5048509;28;45736;-63
2022/06/01 03:08:26;;;;;;;;;6.33;4.00;;;;;;;;5079425;28;45428;-64
2022/06/01 03:10:52;;;;;;;;;4.00;4.00;;;;;;;;5079785;28;46171;-65
2022/06/01 03:13:17;;;;;;;;;6.33;6.00;;;;;;;;5078659;28;45262;-64
2022/06/01 03:15:42;;;;;;;;;4.67;3.67;;;;;;;;5064334;28;45471;-64
2022/06/01 03:18:08;;;;;;;;;10.00;4.67;;;;;;;;5062195;28;45404;-64
2022/06/01 03:20:34;;;;;;;;;5.33;3.67;;;;;;;;5058885;28;46615;-65
2022/06/01 03:23:00;;;;;;;;;5.33;4.67;;;;;;;;5059095;28;45398;-65
2022/06/01 03:25:26;;;;;;;;;3.67;3.67;;;;;;;;5058545;28;45483;-65
2022/06/01 03:27:52;;;;;;;;;7.67;5.00;;;;;;;;5078258;28;45475;-64
2022/06/01 03:30:17;;;;;;;;;4.00;4.00;;;;;;;;5078774;28;46409;-65
2022/06/01 03:32:43;;;;;;;;;4.00;4.00;;;;;;;;5064646;28;45595;-64
2022/06/01 03:35:09;;;;;;;;;5.00;5.00;;;;;;;;5059034;28;45395;-64
2022/06/01 03:37:34;;;;;;;;;8.00;7.00;;;;;;;;5075525;28;45296;-65
2022/06/01 03:40:00;;;;;;;;;4.00;4.00;;;;;;;;5053718;28;45502;-64
2022/06/01 03:42:25;;;;;;;;;4.67;4.67;;;;;;;;5038647;28;45392;-64
2022/06/01 03:47:34;;;;;;;;;4.67;4.00;;;;;;;;5071377;28;45602;-64
2022/06/01 03:50:00;;;;;;;;;10.33;6.33;;;;;;;;5078953;28;45969;-67
2022/06/01 03:52:25;;;;;;;;;8.00;4.00;;;;;;;;5061051;28;45250;-68
2022/06/01 03:54:51;;;;;;;;;3.33;2.00;;;;;;;;5057755;28;45480;-65
2022/06/01 03:57:16;;;;;;;;;6.67;6.00;;;;;;;;5058755;28;45323;-65
2022/06/01 03:59:41;;;;;;;;;6.00;4.00;;;;;;;;5045641;28;46484;-65
2022/06/01 04:02:07;;;;;;;;;5.00;5.00;;;;;;;;5057729;28;45455;-66
2022/06/01 04:04:33;;;;;;;;;5.00;5.00;;;;;;;;5078845;28;45288;-65
2022/06/01 04:06:58;;;;;;;;;7.67;4.00;;;;;;;;5078286;28;45277;-65
2022/06/01 04:09:24;;;;;;;;;10.67;8.00;;;;;;;;5078027;28;45572;-65
2022/06/01 04:11:51;;;;;;;;;4.67;4.67;;;;;;;;5071413;28;45469;-64
2022/06/01 04:14:17;;;;;;;;;8.00;6.67;;;;;;;;5069479;28;45454;-65
2022/06/01 04:16:42;;;;;;;;;6.00;6.00;;;;;;;;5055724;28;45469;-65
2022/06/01 04:19:07;;;;;;;;;9.00;6.00;;;;;;;;5037982;28;46214;-65
2022/06/01 04:21:35;;;;;;;;;9.33;5.33;;;;;;;;5037965;28;45265;-65
2022/06/01 04:24:01;;;;;;;;;5.33;5.33;;;;;;;;5037847;28;45425;-65
2022/06/01 04:26:26;;;;;;;;;8.00;7.00;;;;;;;;5056956;28;45435;-64
2022/06/01 04:28:52;;;;;;;;;10.00;8.00;;;;;;;;5057633;28;46327;-64
2022/06/01 04:31:17;;;;;;;;;10.00;6.33;;;;;;;;5057374;28;45383;-65
2022/06/01 04:33:43;;;;;;;;;12.67;11.67;;;;;;;;5058161;28;45324;-64
2022/06/01 04:36:08;;;;;;;;;8.00;6.33;;;;;;;;5062105;28;45376;-65
2022/06/01 04:38:34;;;;;;;;;15.50;13.00;;;;;;;;5057837;28;46347;-64
2022/06/01 04:40:59;;;;;;;;;12.33;6.33;;;;;;;;5049374;28;45461;-66
2022/06/01 04:43:24;;;;;;;;;8.33;6.33;;;;;;;;5037797;28;45301;-67
2022/06/01 04:45:50;;;;;;;;;9.00;8.00;;;;;;;;5052909;28;45225;-66
2022/06/01 04:48:15;;;;;;;;;8.67;7.00;;;;;;;;5057554;28;46447;-66
2022/06/01 04:50:43;;;;;;;;;10.00;5.00;;;;;;;;5072970;28;45205;-67
2022/06/01 04:53:09;;;;;;;;;7.00;7.00;;;;;;;;5056828;28;45482;-66
2022/06/01 04:55:35;;;;;;;;;9.00;6.00;;;;;;;;5069481;28;45297;-66
2022/06/01 04:58:00;;;;;;;;;7.67;7.67;;;;;;;;5077198;28;46200;-67
2022/06/01 05:00:25;;;;;;;;;6.33;6.33;;;;;;;;5071565;28;45584;-68
2022/06/01 05:02:51;;;;;;;;;0.00;0.00;;;;;;;;5057028;28;45321;-68
2022/06/01 05:05:16;;;;;;;;;8.33;7.00;;;;;;;;5041978;28;45500;-66
2022/06/01 05:07:41;;;;;;;;;11.00;9.33;;;;;;;;5038334;28;46302;-67
2022/06/01 05:10:07;;;;;;;;;18.00;15.67;;;;;;;;5058458;28;45313;-68
2022/06/01 05:12:32;;;;;;;;;12.33;12.00;;;;;;;;5047775;28;45370;-68
2022/06/01 05:14:57;;;;;;;;;8.33;8.33;;;;;;;;5037392;28;45577;-67
2022/06/01 05:17:22;;;;;;;;;8.67;8.67;;;;;;;;5036867;28;45486;-67
2022/06/01 05:19:48;;;;;;;;;8.67;6.67;;;;;;;;5045452;28;45285;-68
2022/06/01 05:22:13;;;;;;;;;9.33;9.00;;;;;;;;5042675;28;45319;-67
2022/06/01 05:24:38;;;;;;;;;13.67;10.00;;;;;;;;5037664;28;45878;-68
2022/06/01 05:27:03;;;;;;;;;9.00;8.67;;;;;;;;5055751;28;46219;-68
2022/06/01 05:29:29;;;;;;;;;7.00;7.00;;;;;;;;5053070;28;45306;-68
2022/06/01 05:31:54;;;;;;;;;9.00;7.00;;;;;;;;5026989;28;45283;-67
2022/06/01 05:34:20;;;;;;;;;8.67;8.00;;;;;;;;5036813;28;45444;-66
2022/06/01 05:36:45;;;;;;;;;11.33;9.00;;;;;;;;5036344;28;45384;-66
2022/06/01 05:39:11;;;;;;;;;9.00;9.00;;;;;;;;5036948;28;45269;-65
2022/06/01 05:41:36;;;;;;;;;10.33;8.00;;;;;;;;5041166;28;45203;-66
2022/06/01 05:44:01;;;;;;;;;80.50;76.25;;;;;;;;5066988;28;45526;-64
2022/06/01 05:46:27;;;;;;;;;19.33;17.00;;;;;;;;5068236;28;46767;-65
2022/06/01 05:48:52;;;;;;;;;17.33;12.00;;;;;;;;5077017;28;45186;-65
2022/06/01 05:51:17;;;;;;;;;10.00;10.00;;;;;;;;5057843;28;45829;-68
2022/06/01 05:53:43;;;;;;;;;12.33;9.67;;;;;;;;5057164;28;45277;-64
2022/06/01 05:56:08;;;;;;;;;14.00;10.00;;;;;;;;5072611;28;45499;-68
2022/06/01 05:58:34;;;;;;;;;11.00;9.67;;;;;;;;5036586;28;45337;-65
2022/06/01 06:01:01;;;;;;;;;9.00;6.00;;;;;;;;5036714;28;45383;-65
2022/06/01 06:03:27;;;;;;;;;9.67;9.67;;;;;;;;5050860;28;45395;-64
2022/06/01 06:08:38;;;;;;;;;10.33;9.00;;;;;;;;5061377;28;45350;-65
2022/06/01 06:11:06;;;;;;;;;11.00;9.33;;;;;;;;5080673;28;45462;-65
2022/06/01 06:13:31;;;;;;;;;12.33;11.33;;;;;;;;5080607;28;46321;-66
2022/06/01 06:15:56;;;;;;;;;10.67;10.00;;;;;;;;5066321;28;45768;-66
2022/06/01 06:18:21;;;;;;;;;12.00;11.67;;;;;;;;5070491;28;45494;-66
2022/06/01 06:20:47;;;;;;;;;14.67;9.00;;;;;;;;5060567;28;45155;-66
2022/06/01 06:23:13;;;;;;;;;17.00;13.33;;;;;;;;5060341;28;45503;-65
2022/06/01 06:25:41;;;;;;;;;26.67;22.33;;;;;;;;5059739;28;46046;-66
2022/06/01 06:28:06;;;;;;;;;18.67;12.00;;;;;;;;5045640;28;45291;-65
2022/06/01 06:30:32;;;;;;;;;26.67;22.67;;;;;;;;5071473;28;45502;-65
2022/06/01 06:32:57;;;;;;;;;10.00;10.00;;;;;;;;5080228;28;45309;-66
2022/06/01 06:35:22;;;;;;;;;13.00;11.33;;;;;;;;5080313;28;46111;-65
2022/06/01 06:37:47;;;;;;;;;13.67;10.67;;;;;;;;5078137;28;45458;-66
2022/06/01 06:40:13;;;;;;;;;19.33;15.00;;;;;;;;5066792;28;45411;-68
2022/06/01 06:42:38;;;;;;;;;14.00;12.67;;;;;;;;5048505;28;45187;-68
2022/06/01 06:45:04;;;;;;;;;11.67;10.00;;;;;;;;5054614;28;46255;-65
2022/06/01 06:47:30;;;;;;;;;11.33;10.33;;;;;;;;5070895;28;45357;-68
2022/06/01 06:49:55;;;;;;;;;24.67;23.00;;;;;;;;5059694;28;45415;-68
2022/06/01 06:52:20;;;;;;;;;11.33;9.67;;;;;;;;5059761;28;45326;-67
2022/06/01 06:54:46;;;;;;;;;10.00;9.67;;;;;;;;5060551;28;46441;-67
2022/06/01 06:57:11;;;;;;;;;14.33;10.33;;;;;;;;5059466;28;45375;-68
2022/06/01 06:59:37;;;;;;;;;13.33;11.00;;;;;;;;5059492;28;45215;-67
2022/06/01 07:02:02;;;;;;;;;19.00;16.00;;;;;;;;5059065;28;45460;-68
2022/06/01 07:04:27;;;;;;;;;16.33;13.67;;;;;;;;5059172;28;45446;-68
2022/06/01 07:06:52;;;;;;;;;8.67;8.67;;;;;;;;5059258;28;45398;-65
2022/06/01 07:09:18;;;;;;;;;12.00;10.67;;;;;;;;5054737;28;45463;-65
2022/06/01 07:11:43;;;;;;;;;15.33;12.00;;;;;;;;5039282;28;45490;-65
2022/06/01 07:14:08;;;;;;;;;14.33;11.00;;;;;;;;5038136;28;46195;-65
2022/06/01 07:16:35;;;;;;;;;9.00;9.00;;;;;;;;5048420;28;45419;-65
2022/06/01 07:19:01;;;;;;;;;9.33;7.00;;;;;;;;5061662;28;45673;-65
2022/06/01 07:21:28;;;;;;;;;9.33;8.00;;;;;;;;5039159;28;45297;-65
2022/06/01 07:23:54;;;;;;;;;8.67;7.00;;;;;;;;5039206;28;45291;-66
2022/06/01 07:26:23;;;;;;;;;10.33;8.00;;;;;;;;5023180;28;45452;-66
2022/06/01 07:28:48;;;;;;;;;9.33;9.00;;;;;;;;5050807;28;46680;-66
2022/06/01 07:31:14;;;;;;;;;8.67;6.00;;;;;;;;5047376;28;45400;-65
2022/06/01 07:33:39;;;;;;;;;5.00;5.00;;;;;;;;5072412;28;45403;-65
2022/06/01 07:36:06;;;;;;;;;9.00;5.00;;;;;;;;5079136;28;45261;-65
2022/06/01 07:44:04;;;;;;;;;7.33;5.00;;;;;;;;5062363;28;45285;-68
2022/06/01 07:46:29;;;;;;;;;5.33;5.00;;;;;;;;5056595;28;45320;-68
2022/06/01 07:48:55;;;;;;;;;5.33;5.33;;;;;;;;5042975;28;45757;-69
2022/06/01 07:51:20;;;;;;;;;5.67;5.67;;;;;;;;5038606;28;45473;-67
2022/06/01 07:53:46;;;;;;;;;7.00;5.00;;;;;;;;5065295;28;45326;-68
2022/06/01 07:56:11;;;;;;;;;4.33;4.00;;;;;;;;5076748;28;45355;-65
2022/06/01 07:58:36;;;;;;;;;3.33;3.00;;;;;;;;5077338;28;45426;-66
2022/06/01 08:01:01;;;;;;;;;4.67;3.33;;;;;;;;5058709;28;45483;-65
2022/06/01 08:03:28;;;;;;;;;4.00;4.00;;;;;;;;5078336;28;46527;-65
2022/06/01 08:05:53;;;;;;;;;1.67;1.67;;;;;;;;5078462;28;45400;-65
2022/06/01 08:08:19;;;;;;;;;4.67;4.67;;;;;;;;5071721;28;45373;-65
2022/06/01 08:10:44;;;;;;;;;4.00;4.00;;;;;;;;5037987;28;45341;-65
2022/06/01 08:13:13;;;;;;;;;5.00;3.33;;;;;;;;5038166;28;45450;-65
2022/06/01 08:15:46;;;;;;;;;4.00;4.00;;;;;;;;5037974;28;45246;-65
2022/06/01 08:18:13;;;;;;;;;4.00;4.00;;;;;;;;5055063;28;45474;-65
2022/06/01 08:20:38;;;;;;;;;2.33;2.33;;;;;;;;5058511;28;45333;-65
2022/06/01 08:23:04;;;;;;;;;6.67;5.67;;;;;;;;5057807;28;46285;-65
2022/06/01 08:25:30;;;;;;;;;1.33;1.00;;;;;;;;5055952;28;45627;-66
2022/06/01 08:27:55;;;;;;;;;1.00;1.00;;;;;;;;5057851;28;45521;-65
2022/06/01 08:30:23;;;;;;;;;2.00;2.00;;;;;;;;5058390;28;45425;-65
2022/06/01 08:32:48;;;;;;;;;4.00;3.00;;;;;;;;5057824;28;46997;-65
2022/06/01 08:35:16;;;;;;;;;2.33;2.33;;;;;;;;5058113;28;45514;-66
2022/06/01 08:37:42;;;;;;;;;5.00;3.33;;;;;;;;5066495;28;45300;-65
2022/06/01 08:40:07;;;;;;;;;0.00;0.00;;;;;;;;5057360;28;45486;-66
2022/06/01 08:42:33;;;;;;;;;7.00;6.00;;;;;;;;5060363;28;46483;-65
2022/06/01 08:45:06;;;;;;;;;4.00;2.67;;;;;;;;5057907;28;45364;-65
2022/06/01 08:47:33;;;;;;;;;3.00;1.33;;;;;;;;5057821;28;45475;-66
2022/06/01 08:50:00;;;;;;;;;0.33;0.33;;;;;;;;5057517;28;45336;-66
2022/06/01 08:52:26;;;;;;;;;3.00;2.00;;;;;;;;5056913;28;45531;-65
2022/06/01 08:54:51;;;;;;;;;3.00;2.00;;;;;;;;5057540;28;45480;-66
2022/06/01 08:57:28;;;;;;;;;1.67;1.00;;;;;;;;5051628;28;45438;-66
2022/06/01 08:59:56;;;;;;;;;1.33;1.33;;;;;;;;5052571;28;45352;-65
2022/06/01 09:02:36;;;;;;;;;13.00;11.67;;;;;;;;5056133;28;45463;-65
2022/06/01 09:05:16;;;;;;;;;4.00;4.00;;;;;;;;5057361;28;45296;-65
2022/06/01 09:07:47;;;;;;;;;2.00;2.00;;;;;;;;5057226;28;45548;-65
2022/06/01 09:10:20;;;;;;;;;1.00;1.00;;;;;;;;5057535;28;45516;-66
2022/06/01 09:12:55;;;;;;;;;2.00;2.00;;;;;;;;5056777;28;46492;-65
2022/06/01 09:15:25;;;;;;;;;2.00;2.00;;;;;;;;5057235;28;45507;-65
2022/06/01 09:17:50;;;;;;;;;4.00;2.67;;;;;;;;5057364;28;45233;-65
2022/06/01 09:23:06;;;;;;;;;1.00;1.00;;;;;;;;5057324;28;45376;-65
2022/06/01 09:25:34;;;;;;;;;4.00;4.00;;;;;;;;5056725;28;45287;-65
2022/06/01 09:28:02;;;;;;;;;2.00;2.00;;;;;;;;5055706;28;45513;-65
2022/06/01 09:30:31;;;;;;;;;2.00;2.00;;;;;;;;5042079;28;45239;-66
2022/06/01 09:33:02;;;;;;;;;1.00;1.00;;;;;;;;5051303;28;46396;-66
2022/06/01 09:35:28;;;;;;;;;2.67;1.33;;;;;;;;5039909;28;45361;-67
2022/06/01 09:37:53;;;;;;;;;2.33;2.33;;;;;;;;5059284;28;45333;-67
2022/06/01 09:40:30;;;;;;;;;1.67;1.67;;;;;;;;5061106;28;45317;-67
2022/06/01 09:42:55;;;;;;;;;3.67;1.00;;;;;;;;5044387;28;45288;-66
2022/06/01 09:45:21;;;;;;;;;2.33;2.33;;;;;;;;5060213;28;45631;-66
2022/06/01 09:47:47;;;;;;;;;2.00;2.00;;;;;;;;5057179;28;45301;-66
2022/06/01 09:50:24;;;;;;;;;0.67;0.67;;;;;;;;5056072;28;45234;-66
2022/06/01 09:52:54;;;;;;;;;2.00;2.00;;;;;;;;5055146;28;46630;-66
2022/06/01 09:55:21;;;;;;;;;1.00;0.67;;;;;;;;5056864;28;45481;-66
2022/06/01 10:06:05;;;;;;;;;0.00;0.00;;;;;;;;5054147;28;45195;-66
2022/06/01 10:06:46;;;;;;;;;1.33;1.00;;;;;;;;5057830;28;45466;-66
2022/06/01 10:09:14;;;;;;;;;0.00;0.00;;;;;;;;5058147;28;45376;-66
2022/06/01 10:11:46;;;;;;;;;2.00;1.33;;;;;;;;5057407;28;45458;-66
2022/06/01 10:14:11;;;;;;;;;2.00;2.00;;;;;;;;5057140;28;46488;-66
2022/06/01 10:16:48;;;;;;;;;2.67;1.33;;;;;;;;5057735;28;45357;-66
2022/06/01 10:19:16;;;;;;;;;3.33;3.33;;;;;;;;5057850;28;45365;-66
2022/06/01 10:21:52;;;;;;;;;1.67;1.67;;;;;;;;5057499;28;45535;-66
2022/06/01 10:24:23;;;;;;;;;5.67;5.33;;;;;;;;5056371;28;46811;-66
2022/06/01 10:26:55;;;;;;;;;1.67;1.67;;;;;;;;5056848;28;45288;-66
2022/06/01 10:29:28;;;;;;;;;5.33;2.67;;;;;;;;5057627;28;45325;-66
2022/06/01 10:31:58;;;;;;;;;1.67;1.67;;;;;;;;5058007;28;45369;-66
2022/06/01 10:34:36;;;;;;;;;3.33;3.33;;;;;;;;5057216;28;45471;-65
2022/06/01 10:37:01;;;;;;;;;3.33;2.33;;;;;;;;5057354;28;45466;-65
2022/06/01 10:39:40;;;;;;;;;2.33;2.00;;;;;;;;5067060;28;45644;-66
2022/06/01 10:43:16;;;;;;;;;11.00;11.00;;;;;;;;5072379;28;45308;-65
2022/06/01 10:45:13;;;;;;;;;3.33;2.00;;;;;;;;5065673;28;46073;-66
2022/06/01 10:47:41;;;;;;;;;2.00;2.00;;;;;;;;5056115;28;45483;-66
2022/06/01 10:50:16;;;;;;;;;3.00;3.00;;;;;;;;5043840;28;45554;-65
2022/06/01 10:52:43;;;;;;;;;4.00;2.00;;;;;;;;5053404;28;45549;-66
2022/06/01 10:55:09;;;;;;;;;1.00;1.00;;;;;;;;5052291;28;46332;-66
2022/06/01 10:57:36;;;;;;;;;3.00;1.33;;;;;;;;5040942;28;45463;-66
2022/06/01 11:00:03;;;;;;;;;3.00;3.00;;;;;;;;5059389;28;45446;-66
2022/06/01 11:02:34;;;;;;;;;3.00;3.00;;;;;;;;5059098;28;45753;-66
2022/06/01 11:05:16;;;;;;;;;12.00;10.33;;;;;;;;5059298;28;46735;-66
2022/06/01 11:07:41;;;;;;;;;9.67;9.67;;;;;;;;5058903;28;45218;-66
2022/06/01 11:10:09;;;;;;;;;9.33;9.33;;;;;;;;5059339;28;45368;-66
2022/06/01 11:12:52;;;;;;;;;6.67;5.33;;;;;;;;5057732;28;45449;-66
2022/06/01 11:15:17;;;;;;;;;21.00;17.33;;;;;;;;5059016;28;46709;-66
2022/06/01 11:17:45;;;;;;;;;7.00;4.33;;;;;;;;5058999;28;45613;-66
2022/06/01 11:20:16;;;;;;;;;9.67;9.67;;;;;;;;5060061;28;45614;-66
2022/06/01 11:22:58;;;;;;;;;9.33;7.67;;;;;;;;5058922;28;45455;-66
2022/06/01 11:25:41;;;;;;;;;11.00;9.00;;;;;;;;5058660;28;46186;-66
2022/06/01 11:28:07;;;;;;;;;12.67;9.67;;;;;;;;5058714;28;45454;-66
2022/06/01 11:30:41;;;;;;;;;6.33;6.00;;;;;;;;5060210;28;45436;-66
2022/06/01 11:33:15;;;;;;;;;9.00;6.00;;;;;;;;5065645;28;45503;-66
2022/06/01 11:35:42;;;;;;;;;7.67;7.00;;;;;;;;5078106;28;45498;-66
2022/06/01 11:38:13;;;;;;;;;5.67;5.67;;;;;;;;5058537;28;45317;-66
2022/06/01 11:40:45;;;;;;;;;4.00;4.00;;;;;;;;5059332;28;45310;-66
2022/06/01 11:43:24;;;;;;;;;3.00;3.00;;;;;;;;5058676;28;45274;-66
2022/06/01 11:45:59;;;;;;;;;3.00;3.00;;;;;;;;5058449;28;46538;-66
2022/06/01 11:48:28;;;;;;;;;3.00;3.00;;;;;;;;5058644;28;45365;-66
2022/06/01 11:51:03;;;;;;;;;2.67;2.00;;;;;;;;5058039;28;45471;-66
2022/06/01 11:53:42;;;;;;;;;4.67;4.33;;;;;;;;5054570;28;45528;-66
2022/06/01 11:56:34;;;;;;;;;5.00;3.67;;;;;;;;5057280;28;45451;-66
2022/06/01 11:59:05;;;;;;;;;3.00;3.00;;;;;;;;5055009;28;45390;-67
2022/06/01 12:01:59;;;;;;;;;4.67;2.33;;;;;;;;5051605;28;45587;-67
2022/06/01 12:04:36;;;;;;;;;4.33;2.33;;;;;;;;5027427;28;45456;-66
2022/06/01 12:07:13;;;;;;;;;3.67;2.00;;;;;;;;5012493;28;46278;-66
2022/06/01 12:09:39;;;;;;;;;2.00;2.00;;;;;;;;5019470;28;45427;-67
2022/06/01 12:12:04;;;;;;;;;4.00;4.00;;;;;;;;5033471;28;45456;-68
2022/06/01 12:14:40;;;;;;;;;2.33;2.33;;;;;;;;5024304;28;45810;-67
2022/06/01 12:17:18;;;;;;;;;4.00;2.00;;;;;;;;5024957;28;46507;-67
2022/06/01 12:19:47;;;;;;;;;3.33;3.00;;;;;;;;5019927;28;45522;-68
2022/06/01 12:30:57;;;;;;;;;3.33;2.67;;;;;;;;5033950;28;45454;-67
2022/06/01 12:33:25;;;;;;;;;3.33;3.00;;;;;;;;5034870;28;45410;-68
2022/06/01 12:35:58;;;;;;;;;2.67;2.67;;;;;;;;5033223;28;45519;-68
2022/06/01 12:38:28;;;;;;;;;2.00;2.00;;;;;;;;5024643;28;47207;-69
2022/06/01 12:40:55;;;;;;;;;4.00;3.33;;;;;;;;5026002;28;45377;-69
2022/06/01 12:43:31;;;;;;;;;1.67;1.00;;;;;;;;5053843;28;45425;-68
2022/06/01 12:45:57;;;;;;;;;4.00;2.67;;;;;;;;5056693;28;45400;-69
2022/06/01 12:48:32;;;;;;;;;2.00;2.00;;;;;;;;5056048;28;46612;-69
2022/06/01 12:51:03;;;;;;;;;3.00;2.00;;;;;;;;5056301;28;45530;-69
2022/06/01 12:53:40;;;;;;;;;1.33;1.33;;;;;;;;5057084;28;45380;-69
2022/06/01 12:56:17;;;;;;;;;3.00;3.00;;;;;;;;5057196;28;45325;-69
2022/06/01 12:58:46;;;;;;;;;5.00;5.00;;;;;;;;5056743;28;47118;-69
2022/06/01 13:01:12;;;;;;;;;2.00;2.00;;;;;;;;5056022;28;45486;-69
2022/06/01 13:03:49;;;;;;;;;4.67;3.33;;;;;;;;5056691;28;45322;-69
2022/06/01 13:06:18;;;;;;;;;19.00;16.67;;;;;;;;5056492;28;45429;-69
2022/06/01 13:08:43;;;;;;;;;3.00;3.00;;;;;;;;5056574;28;45407;-69
2022/06/01 13:11:11;;;;;;;;;2.00;2.00;;;;;;;;5054938;28;45482;-70
2022/06/01 13:13:37;;;;;;;;;2.67;2.67;;;;;;;;5056049;28;45313;-70
2022/06/01 13:16:04;;;;;;;;;10.00;7.33;;;;;;;;5056783;28;45397;-68
2022/06/01 13:18:41;;;;;;;;;41.00;34.67;;;;;;;;5056486;28;46227;-69
2022/06/01 13:21:09;;;;;;;;;5.00;2.00;;;;;;;;5056260;28;45451;-68
2022/06/01 13:23:43;;;;;;;;;4.00;2.00;;;;;;;;5055989;28;45386;-68
2022/06/01 13:26:10;;;;;;;;;1.33;1.33;;;;;;;;5056886;28;45473;-69
2022/06/01 13:28:35;;;;;;;;;5.33;4.00;;;;;;;;5056451;28;46479;-69
2022/06/01 13:31:06;;;;;;;;;1.00;1.00;;;;;;;;5056606;28;45371;-69
2022/06/01 13:33:39;;;;;;;;;2.00;1.00;;;;;;;;5057054;28;45363;-69
2022/06/01 13:36:13;;;;;;;;;1.00;1.00;;;;;;;;5057059;28;45484;-69
2022/06/01 13:38:42;;;;;;;;;1.00;1.00;;;;;;;;5056906;28;46330;-68
2022/06/01 13:41:10;;;;;;;;;2.00;2.00;;;;;;;;5056775;28;45292;-69
2022/06/01 13:43:39;;;;;;;;;1.67;1.67;;;;;;;;5057053;28;45235;-68
2022/06/01 13:46:06;;;;;;;;;0.67;0.67;;;;;;;;5057023;28;45361;-69
2022/06/01 13:48:49;;;;;;;;;1.33;1.33;;;;;;;;5056648;28;46653;-68
2022/06/01 13:51:49;;;;;;;;;1.33;1.33;;;;;;;;5056844;28;45367;-69
2022/06/01 13:54:18;;;;;;;;;7.33;4.33;;;;;;;;4994864;28;45390;-68
2022/06/01 13:56:44;;;;;;;;;1.00;1.00;;;;;;;;4994780;28;45283;-68
2022/06/01 13:59:11;;;;;;;;;2.67;2.00;;;;;;;;4994356;28;46400;-69
2022/06/01 14:01:50;;;;;;;;;3.00;3.00;;;;;;;;4994308;28;45378;-69
2022/06/01 14:04:25;;;;;;;;;1.00;1.00;;;;;;;;4994655;28;45300;-69
2022/06/01 14:06:52;;;;;;;;;5.33;5.33;;;;;;;;4994910;28;45311;-69
2022/06/01 14:09:21;;;;;;;;;1.67;1.67;;;;;;;;4994523;28;47541;-69
2022/06/01 14:11:46;;;;;;;;;2.00;2.00;;;;;;;;4992147;28;45513;-69
2022/06/01 14:14:26;;;;;;;;;2.00;2.00;;;;;;;;4991175;28;45460;-68
2022/06/01 14:16:53;;;;;;;;;4.33;3.00;;;;;;;;4994631;28;45754;-69
2022/06/01 14:19:22;;;;;;;;;2.33;2.33;;;;;;;;4994067;28;46185;-68
2022/06/01 14:21:53;;;;;;;;;3.67;2.00;;;;;;;;4993998;28;45472;-69
2022/06/01 14:24:24;;;;;;;;;2.00;2.00;;;;;;;;4996998;28;45542;-69
2022/06/01 14:29:41;;;;;;;;;2.00;2.00;;;;;;;;5039214;28;45746;-68
2022/06/01 14:32:12;;;;;;;;;2.33;1.00;;;;;;;;5050677;28;45416;-68
2022/06/01 14:34:40;;;;;;;;;3.00;3.00;;;;;;;;5059500;28;45270;-68
2022/06/01 14:37:05;;;;;;;;;2.00;2.00;;;;;;;;5059541;28;45411;-68
2022/06/01 14:39:30;;;;;;;;;1.67;1.67;;;;;;;;5058725;28;45475;-68
2022/06/01 14:41:55;;;;;;;;;4.67;3.00;;;;;;;;5059587;28;45549;-70
2022/06/01 14:44:23;;;;;;;;;3.00;3.00;;;;;;;;5059298;28;45477;-68
2022/06/01 14:46:49;;;;;;;;;4.00;3.00;;;;;;;;5059421;28;45530;-68
2022/06/01 14:49:16;;;;;;;;;4.00;3.00;;;;;;;;5059359;28;45396;-68
2022/06/01 14:51:43;;;;;;;;;8.00;8.00;;;;;;;;5059058;28;45395;-69
2022/06/01 14:54:12;;;;;;;;;5.00;3.67;;;;;;;;5059066;28;45598;-69
2022/06/01 14:56:38;;;;;;;;;4.00;4.00;;;;;;;;5059177;28;45435;-69
2022/06/01 14:59:08;;;;;;;;;4.00;4.00;;;;;;;;5058778;28;47440;-68
2022/06/01 15:01:56;;;;;;;;;2.00;2.00;;;;;;;;5059002;28;45381;-68
2022/06/01 15:04:33;;;;;;;;;5.00;4.00;;;;;;;;5059334;28;45336;-69
2022/06/01 15:07:01;;;;;;;;;3.67;3.67;;;;;;;;5059259;28;45408;-70
2022/06/01 15:09:36;;;;;;;;;;;;;;;;;;;;;
2022/06/01 15:12:16;;;;;;;;;2.67;2.67;;;;;;;;5054061;28;73908;-68
2022/06/01 15:14:42;;;;;;;;;2.33;2.00;;;;;;;;5058382;28;45447;-69
2022/06/01 15:17:10;;;;;;;;;2.00;2.00;;;;;;;;5059442;28;45355;-70
2022/06/01 15:19:38;;;;;;;;;4.00;4.00;;;;;;;;5058745;28;46029;-69
2022/06/01 15:22:06;;;;;;;;;3.00;3.00;;;;;;;;5058733;28;45313;-68
2022/06/01 15:24:31;;;;;;;;;3.00;3.00;;;;;;;;5058473;28;45361;-69
2022/06/01 15:26:59;;;;;;;;;7.00;5.00;;;;;;;;5058747;28;45817;-70